Time;durP1;ratioP1;P1;durP2;ratioP2;P2;SDS_P1;SDS_P2;PMS_P1;PMS_P2;Temp;Humidity;BMP_temperature;BMP_pressure;BME280_temperature;BME280_humidity;BME280_pressure;Samples;Min_cycle;Max_cycle;Signal;HPM_P1;HPM_P2
2023/10/25 00:00:48;;;;;;;;;;;10.70;99.90;;;;;;7331558;19;108598;-68
2023/10/25 00:03:16;;;;;;;;;;;10.70;99.90;;;;;;7336322;19;108553;-69
2023/10/25 00:05:44;;;;;;;;;;;10.70;99.90;;;;;;7335487;19;109360;-68
2023/10/25 00:08:12;;;;;;;;;;;10.70;99.90;;;;;;7335158;19;108592;-68
2023/10/25 00:10:39;;;;;;;;;;;10.60;99.90;;;;;;7332385;19;110153;-68
2023/10/25 00:13:06;;;;;;;;;;;10.60;99.90;;;;;;7333465;19;113160;-69
2023/10/25 00:15:33;;;;;;;;;;;10.60;99.90;;;;;;7331953;19;112823;-68
2023/10/25 00:18:00;;;;;;;;;;;10.60;99.90;;;;;;7333605;19;109498;-69
2023/10/25 00:20:27;;;;;;;;;;;10.50;99.90;;;;;;7333843;19;109226;-68
2023/10/25 00:22:55;;;;;;;;;;;10.60;99.90;;;;;;7334355;19;108896;-69
2023/10/25 00:25:22;;;;;;;;;;;10.60;99.90;;;;;;7332107;19;109870;-69
2023/10/25 00:27:49;;;;;;;;;;;10.60;99.90;;;;;;7338703;19;109680;-69
2023/10/25 00:30:17;;;;;;;;;;;10.60;99.90;;;;;;7333369;19;112327;-69
2023/10/25 00:32:44;;;;;;;;;;;10.60;99.90;;;;;;7331243;19;108822;-69
2023/10/25 00:35:11;;;;;;;;;;;10.60;99.90;;;;;;7333835;19;111728;-69
2023/10/25 00:37:38;;;;;;;;;;;10.60;99.90;;;;;;7331502;19;113035;-69
2023/10/25 00:40:05;;;;;;;;;;;10.60;99.90;;;;;;7333486;19;109488;-68
2023/10/25 00:42:32;;;;;;;;;;;10.60;99.90;;;;;;7333030;19;108641;-69
2023/10/25 00:45:00;;;;;;;;;;;10.60;99.90;;;;;;7334147;19;109616;-68
2023/10/25 00:47:27;;;;;;;;;;;10.50;99.90;;;;;;7334548;19;108356;-69
2023/10/25 00:49:54;;;;;;;;;;;10.60;99.90;;;;;;7339822;19;109439;-68
2023/10/25 00:52:21;;;;;;;;;;;10.60;99.90;;;;;;7332847;19;109085;-68
2023/10/25 00:54:49;;;;;;;;;;;10.60;99.90;;;;;;7332835;19;109240;-69
2023/10/25 00:57:16;;;;;;;;;;;10.70;99.90;;;;;;7332462;19;109745;-68
2023/10/25 00:59:44;;;;;;;;;;;10.70;99.90;;;;;;7331798;19;109826;-68
2023/10/25 01:02:11;;;;;;;;;;;10.70;99.90;;;;;;7332230;19;110120;-68
2023/10/25 01:04:38;;;;;;;;;;;10.70;99.90;;;;;;7332370;19;109940;-68
2023/10/25 01:07:05;;;;;;;;;;;10.70;99.90;;;;;;7330612;19;108521;-69
2023/10/25 01:09:33;;;;;;;;;;;10.70;99.90;;;;;;7331391;19;109346;-69
2023/10/25 01:12:00;;;;;;;;;;;10.70;99.90;;;;;;7335593;19;109916;-69
2023/10/25 01:14:29;;;;;;;;;;;10.80;99.90;;;;;;7333098;19;110848;-68
2023/10/25 01:16:56;;;;;;;;;;;10.80;99.90;;;;;;7329438;19;109900;-69
2023/10/25 01:19:24;;;;;;;;;;;10.80;99.90;;;;;;7333347;19;109102;-69
2023/10/25 01:21:51;;;;;;;;;;;10.80;99.90;;;;;;7332625;19;109734;-69
2023/10/25 01:24:18;;;;;;;;;;;10.80;99.90;;;;;;7331341;19;109073;-70
2023/10/25 01:26:45;;;;;;;;;;;10.80;99.90;;;;;;7333833;19;109565;-69
2023/10/25 01:29:12;;;;;;;;;;;10.90;99.90;;;;;;7334475;19;109872;-69
2023/10/25 01:31:39;;;;;;;;;;;10.80;99.90;;;;;;7336502;19;112991;-69
2023/10/25 01:34:07;;;;;;;;;;;10.80;99.90;;;;;;7342201;19;109443;-69
2023/10/25 01:36:34;;;;;;;;;;;10.80;99.90;;;;;;7338755;19;109390;-70
2023/10/25 01:39:01;;;;;;;;;;;10.80;99.90;;;;;;7337141;19;109632;-69
2023/10/25 01:41:28;;;;;;;;;;;10.80;99.90;;;;;;7338939;19;108587;-69
2023/10/25 01:43:59;;;;;;;;;;;10.80;99.90;;;;;;7337785;19;109176;-69
2023/10/25 01:46:26;;;;;;;;;;;10.80;99.90;;;;;;7340459;19;108764;-69
2023/10/25 01:48:53;;;;;;;;;;;10.80;99.90;;;;;;7340230;19;109398;-69
2023/10/25 01:51:20;;;;;;;;;;;10.80;99.90;;;;;;7332243;19;109548;-69
2023/10/25 01:53:47;;;;;;;;;;;10.80;99.90;;;;;;7342557;19;108527;-69
2023/10/25 01:56:15;;;;;;;;;;;10.80;99.90;;;;;;7336086;19;109565;-68
2023/10/25 01:58:42;;;;;;;;;;;10.80;99.90;;;;;;7335720;19;109073;-69
2023/10/25 02:01:09;;;;;;;;;;;10.80;99.90;;;;;;7337803;19;108901;-69
2023/10/25 02:03:36;;;;;;;;;;;10.80;99.90;;;;;;7338421;19;109611;-69
2023/10/25 02:06:30;;;;;;;;;;;10.80;99.90;;;;;;7337913;19;109358;-69
2023/10/25 02:08:57;;;;;;;;;;;10.80;99.90;;;;;;7336699;19;109315;-69
2023/10/25 02:11:24;;;;;;;;;;;10.80;99.90;;;;;;7335289;19;109352;-69
2023/10/25 02:13:52;;;;;;;;;;;10.80;99.90;;;;;;7337749;19;108825;-69
2023/10/25 02:16:19;;;;;;;;;;;10.80;99.90;;;;;;7336924;19;110148;-69
2023/10/25 02:18:46;;;;;;;;;;;10.80;99.90;;;;;;7336967;19;109395;-69
2023/10/25 02:21:13;;;;;;;;;;;10.80;99.90;;;;;;7339228;19;109532;-69
2023/10/25 02:23:42;;;;;;;;;;;10.80;99.90;;;;;;7336637;19;109113;-70
2023/10/25 02:26:09;;;;;;;;;;;10.80;99.90;;;;;;7333833;19;110237;-69
2023/10/25 02:28:36;;;;;;;;;;;10.80;99.90;;;;;;7334220;19;109149;-69
2023/10/25 02:31:03;;;;;;;;;;;10.80;99.90;;;;;;7336320;19;109882;-69
2023/10/25 02:33:31;;;;;;;;;;;10.90;99.90;;;;;;7337468;19;109773;-69
2023/10/25 02:35:58;;;;;;;;;;;10.90;99.90;;;;;;7337318;19;109757;-69
2023/10/25 02:38:25;;;;;;;;;;;10.80;99.90;;;;;;7338835;19;109248;-69
2023/10/25 02:40:52;;;;;;;;;;;10.80;99.90;;;;;;7336350;19;109575;-69
2023/10/25 02:43:19;;;;;;;;;;;10.80;99.90;;;;;;7333996;19;109212;-69
2023/10/25 02:45:47;;;;;;;;;;;10.80;99.90;;;;;;7335918;19;108729;-69
2023/10/25 02:48:14;;;;;;;;;;;10.70;99.90;;;;;;7337319;19;108789;-70
2023/10/25 02:50:41;;;;;;;;;;;10.70;99.90;;;;;;7337099;19;109438;-69
2023/10/25 02:53:09;;;;;;;;;;;10.70;99.90;;;;;;7333237;19;109449;-69
2023/10/25 02:55:36;;;;;;;;;;;10.70;99.90;;;;;;7335436;19;108994;-69
2023/10/25 02:58:03;;;;;;;;;;;10.70;99.90;;;;;;7333958;19;109613;-68
2023/10/25 03:00:31;;;;;;;;;;;10.70;99.90;;;;;;7339724;19;108904;-69
2023/10/25 03:02:58;;;;;;;;;;;10.70;99.90;;;;;;7334420;19;109928;-69
2023/10/25 03:05:25;;;;;;;;;;;10.70;99.90;;;;;;7336734;19;108988;-69
2023/10/25 03:07:52;;;;;;;;;;;10.70;99.90;;;;;;7335038;19;109595;-70
2023/10/25 03:10:21;;;;;;;;;;;10.70;99.90;;;;;;7336357;19;109766;-69
2023/10/25 03:12:48;;;;;;;;;;;10.70;99.90;;;;;;7332208;19;109432;-68
2023/10/25 03:15:15;;;;;;;;;;;10.80;99.90;;;;;;7337034;19;109410;-70
2023/10/25 03:17:42;;;;;;;;;;;10.80;99.90;;;;;;7334078;19;109769;-71
2023/10/25 03:20:10;;;;;;;;;;;10.80;99.90;;;;;;7336290;19;109377;-73
2023/10/25 03:22:37;;;;;;;;;;;10.70;99.90;;;;;;7338548;19;108679;-71
2023/10/25 03:25:04;;;;;;;;;;;10.80;99.90;;;;;;7335004;19;109029;-74
2023/10/25 03:27:32;;;;;;;;;;;10.80;99.90;;;;;;7335047;19;111490;-71
2023/10/25 03:29:59;;;;;;;;;;;10.80;99.90;;;;;;7335258;19;110454;-70
2023/10/25 03:32:26;;;;;;;;;;;10.80;99.90;;;;;;7334983;19;110261;-70
2023/10/25 03:34:53;;;;;;;;;;;10.80;99.90;;;;;;7336371;19;108406;-70
2023/10/25 03:37:20;;;;;;;;;;;10.80;99.90;;;;;;7332213;19;110076;-71
2023/10/25 03:39:48;;;;;;;;;;;10.80;99.90;;;;;;7335417;19;109742;-69
2023/10/25 03:42:15;;;;;;;;;;;10.80;99.90;;;;;;7340303;19;109027;-69
2023/10/25 03:44:43;;;;;;;;;;;10.80;99.90;;;;;;7334317;19;108670;-69
2023/10/25 03:47:10;;;;;;;;;;;10.80;99.90;;;;;;7336982;19;108677;-70
2023/10/25 03:49:37;;;;;;;;;;;10.80;99.90;;;;;;7333378;19;110193;-70
2023/10/25 03:52:04;;;;;;;;;;;10.80;99.90;;;;;;7333033;19;108860;-69
2023/10/25 03:54:31;;;;;;;;;;;10.80;99.90;;;;;;7333833;19;110587;-69
2023/10/25 03:56:58;;;;;;;;;;;10.90;99.90;;;;;;7335577;19;111024;-69
2023/10/25 03:59:25;;;;;;;;;;;10.90;99.90;;;;;;7329694;19;109262;-69
2023/10/25 04:01:52;;;;;;;;;;;10.90;99.90;;;;;;7331478;19;110351;-69
2023/10/25 04:04:20;;;;;;;;;;;10.90;99.90;;;;;;7336602;19;109217;-69
2023/10/25 04:06:47;;;;;;;;;;;10.90;99.90;;;;;;7336081;19;108739;-69
2023/10/25 04:09:14;;;;;;;;;;;10.90;99.90;;;;;;7333485;19;109770;-68
2023/10/25 04:11:41;;;;;;;;;;;10.90;99.90;;;;;;7334096;19;108702;-68
2023/10/25 04:14:08;;;;;;;;;;;10.90;99.90;;;;;;7331963;19;110502;-69
2023/10/25 04:16:35;;;;;;;;;;;11.00;99.90;;;;;;7334561;19;109079;-69
2023/10/25 04:19:02;;;;;;;;;;;11.00;99.90;;;;;;7331802;19;108408;-69
2023/10/25 04:21:29;;;;;;;;;;;11.00;99.90;;;;;;7335620;19;109319;-70
2023/10/25 04:23:57;;;;;;;;;;;11.00;99.90;;;;;;7332418;19;111646;-69
2023/10/25 04:26:24;;;;;;;;;;;11.00;99.90;;;;;;7338631;19;109204;-68
2023/10/25 04:28:51;;;;;;;;;;;11.00;99.90;;;;;;7329081;19;110728;-69
2023/10/25 04:31:21;;;;;;;;;;;11.00;99.90;;;;;;7330324;19;108805;-69
2023/10/25 04:33:48;;;;;;;;;;;11.00;99.90;;;;;;7332369;19;110871;-69
2023/10/25 04:36:16;;;;;;;;;;;11.10;99.90;;;;;;7330088;19;112550;-69
2023/10/25 04:38:43;;;;;;;;;;;11.10;99.90;;;;;;7331592;19;110784;-68
2023/10/25 04:41:10;;;;;;;;;;;11.10;99.90;;;;;;7331073;19;109395;-69
2023/10/25 04:43:38;;;;;;;;;;;11.10;99.90;;;;;;7330707;19;109595;-69
2023/10/25 04:46:06;;;;;;;;;;;11.20;99.90;;;;;;7333323;19;113126;-69
2023/10/25 04:48:33;;;;;;;;;;;11.20;99.90;;;;;;7338269;19;109216;-69
2023/10/25 04:51:02;;;;;;;;;;;11.20;99.90;;;;;;7331875;19;109374;-69
2023/10/25 04:53:29;;;;;;;;;;;11.20;99.90;;;;;;7333372;19;108711;-69
2023/10/25 04:55:57;;;;;;;;;;;11.20;99.90;;;;;;7330865;19;109391;-69
2023/10/25 04:58:26;;;;;;;;;;;11.20;99.90;;;;;;7327587;19;108717;-69
2023/10/25 05:00:53;;;;;;;;;;;11.20;99.90;;;;;;7334829;19;110353;-69
2023/10/25 05:03:20;;;;;;;;;;;11.20;99.90;;;;;;7336177;19;109795;-70
2023/10/25 05:05:48;;;;;;;;;;;11.20;99.90;;;;;;7338398;19;109006;-73
2023/10/25 05:08:15;;;;;;;;;;;11.20;99.90;;;;;;7339238;19;109106;-73
2023/10/25 05:10:44;;;;;;;;;;;11.20;99.90;;;;;;7344916;19;109068;-72
2023/10/25 05:13:13;;;;;;;;;;;11.20;99.90;;;;;;7338245;19;110392;-70
2023/10/25 05:15:40;;;;;;;;;;;11.20;99.90;;;;;;7335633;19;109101;-69
2023/10/25 05:18:08;;;;;;;;;;;11.20;99.90;;;;;;7336929;19;109827;-69
2023/10/25 05:20:35;;;;;;;;;;;11.20;99.90;;;;;;7337743;19;108920;-72
2023/10/25 05:23:02;;;;;;;;;;;11.20;99.90;;;;;;7337563;19;110037;-70
2023/10/25 05:25:29;;;;;;;;;;;11.20;99.90;;;;;;7341097;19;110034;-69
2023/10/25 05:27:57;;;;;;;;;;;11.30;99.90;;;;;;7339943;19;109500;-70
2023/10/25 05:30:24;;;;;;;;;;;11.30;99.90;;;;;;7340209;19;108874;-69
2023/10/25 05:32:52;;;;;;;;;;;11.30;99.90;;;;;;7344769;19;108568;-69
2023/10/25 05:35:19;;;;;;;;;;;11.30;99.90;;;;;;7335456;19;109118;-69
2023/10/25 05:37:47;;;;;;;;;;;11.30;99.90;;;;;;7338918;19;109592;-69
2023/10/25 05:40:14;;;;;;;;;;;11.30;99.90;;;;;;7338095;19;109484;-69
2023/10/25 05:42:47;;;;;;;;;;;11.30;99.90;;;;;;7339199;19;110092;-69
2023/10/25 05:45:14;;;;;;;;;;;11.30;99.90;;;;;;7340040;19;108538;-69
2023/10/25 05:47:42;;;;;;;;;;;11.30;99.90;;;;;;7339556;19;109165;-69
2023/10/25 05:50:10;;;;;;;;;;;11.30;99.90;;;;;;7336215;19;109226;-69
2023/10/25 05:52:38;;;;;;;;;;;11.30;99.90;;;;;;7342333;19;108777;-66
2023/10/25 05:55:06;;;;;;;;;;;11.30;99.90;;;;;;7336032;19;110068;-72
2023/10/25 05:57:33;;;;;;;;;;;11.20;99.90;;;;;;7338324;19;108734;-72
2023/10/25 06:00:01;;;;;;;;;;;11.20;99.90;;;;;;7335406;19;108945;-72
2023/10/25 06:02:28;;;;;;;;;;;11.20;99.90;;;;;;7337117;19;109968;-72
2023/10/25 06:04:56;;;;;;;;;;;11.20;99.90;;;;;;7338243;19;109647;-71
2023/10/25 06:07:24;;;;;;;;;;;11.20;99.90;;;;;;7336839;19;108466;-72
2023/10/25 06:09:51;;;;;;;;;;;11.20;99.90;;;;;;7340385;19;109400;-72
2023/10/25 06:12:21;;;;;;;;;;;11.30;99.90;;;;;;7338169;19;109468;-71
2023/10/25 06:14:48;;;;;;;;;;;11.30;99.90;;;;;;7340912;19;108727;-71
2023/10/25 06:17:15;;;;;;;;;;;11.20;99.90;;;;;;7336741;19;110075;-72
2023/10/25 06:19:42;;;;;;;;;;;11.20;99.90;;;;;;7340340;19;108403;-72
2023/10/25 06:22:09;;;;;;;;;;;11.20;99.90;;;;;;7335077;19;110032;-72
2023/10/25 06:24:37;;;;;;;;;;;11.20;99.90;;;;;;7337042;19;110819;-72
2023/10/25 06:27:04;;;;;;;;;;;11.20;99.90;;;;;;7337753;19;108263;-72
2023/10/25 06:29:31;;;;;;;;;;;11.20;99.90;;;;;;7337638;19;110144;-72
2023/10/25 06:31:58;;;;;;;;;;;11.30;99.90;;;;;;7338412;19;109408;-72
2023/10/25 06:34:25;;;;;;;;;;;11.30;99.90;;;;;;7338578;19;109495;-72
2023/10/25 06:36:52;;;;;;;;;;;11.30;99.90;;;;;;7337927;19;110562;-72
2023/10/25 06:39:19;;;;;;;;;;;11.40;99.90;;;;;;7337204;19;108534;-72
2023/10/25 06:41:47;;;;;;;;;;;11.40;99.90;;;;;;7332372;19;111934;-72
2023/10/25 06:44:14;;;;;;;;;;;11.40;99.90;;;;;;7337314;19;109323;-72
2023/10/25 06:46:42;;;;;;;;;;;11.50;99.90;;;;;;7334373;19;109948;-71
2023/10/25 06:49:09;;;;;;;;;;;11.50;99.90;;;;;;7335938;19;109488;-72
2023/10/25 06:51:36;;;;;;;;;;;11.50;99.90;;;;;;7337158;19;110144;-73
2023/10/25 06:54:04;;;;;;;;;;;11.50;99.90;;;;;;7337131;19;109603;-72
2023/10/25 06:56:33;;;;;;;;;;;11.50;99.90;;;;;;7336611;19;109106;-73
2023/10/25 06:59:00;;;;;;;;;;;11.50;99.90;;;;;;7342047;19;108559;-73
2023/10/25 07:01:31;;;;;;;;;;;11.40;99.90;;;;;;7333179;19;110977;-72
2023/10/25 07:03:58;;;;;;;;;;;11.40;99.90;;;;;;7333902;19;110269;-73
2023/10/25 07:06:26;;;;;;;;;;;11.50;99.90;;;;;;7333409;19;109351;-73
2023/10/25 07:08:53;;;;;;;;;;;11.50;99.90;;;;;;7331987;19;109209;-74
2023/10/25 07:11:20;;;;;;;;;;;11.40;99.90;;;;;;7336361;19;108846;-73
2023/10/25 07:13:51;;;;;;;;;;;11.50;99.90;;;;;;7338893;19;110503;-73
2023/10/25 07:16:19;;;;;;;;;;;11.50;99.90;;;;;;7336961;19;109104;-73
2023/10/25 07:18:47;;;;;;;;;;;11.50;99.90;;;;;;7339648;19;108689;-73
2023/10/25 07:21:15;;;;;;;;;;;11.50;99.90;;;;;;7341330;19;110440;-73
2023/10/25 07:23:42;;;;;;;;;;;11.60;99.90;;;;;;7333889;19;110341;-73
2023/10/25 07:26:09;;;;;;;;;;;11.60;99.90;;;;;;7331116;19;108632;-74
2023/10/25 07:28:36;;;;;;;;;;;11.60;99.90;;;;;;7336474;19;112280;-73
2023/10/25 07:31:03;;;;;;;;;;;11.60;99.90;;;;;;7336333;19;109480;-74
2023/10/25 07:33:30;;;;;;;;;;;11.70;99.90;;;;;;7336513;19;109083;-74
2023/10/25 07:35:58;;;;;;;;;;;11.70;99.90;;;;;;7335064;19;110208;-74
2023/10/25 07:38:25;;;;;;;;;;;11.70;99.90;;;;;;7335945;19;109052;-74
2023/10/25 07:40:52;;;;;;;;;;;11.70;99.90;;;;;;7334518;19;110473;-75
2023/10/25 07:43:20;;;;;;;;;;;11.70;99.90;;;;;;7340656;19;109842;-74
2023/10/25 07:45:47;;;;;;;;;;;11.60;99.90;;;;;;7338778;19;108491;-74
2023/10/25 07:48:27;;;;;;;;;;;11.60;99.90;;;;;;7371106;19;108257;-75
2023/10/25 07:51:01;;;;;;;;;;;11.60;99.90;;;;;;7369031;19;108918;-75
2023/10/25 07:53:28;;;;;;;;;;;11.50;99.90;;;;;;7372055;19;108680;-75
2023/10/25 07:55:55;;;;;;;;;;;11.40;99.90;;;;;;7369714;19;109079;-75
2023/10/25 07:58:42;;;;;;;;;;;11.40;99.90;;;;;;7369756;19;108440;-74
2023/10/25 08:01:10;;;;;;;;;;;11.30;99.90;;;;;;7369022;19;109332;-76
2023/10/25 08:03:37;;;;;;;;;;;11.40;99.90;;;;;;7368486;19;109157;-76
2023/10/25 08:06:05;;;;;;;;;;;11.40;99.90;;;;;;7366155;19;108371;-77
2023/10/25 08:08:32;;;;;;;;;;;11.50;99.90;;;;;;7374848;19;109519;-77
2023/10/25 08:11:04;;;;;;;;;;;11.50;99.90;;;;;;7367530;19;108649;-75
2023/10/25 08:13:42;;;;;;;;;;;11.50;99.90;;;;;;7365753;19;110576;-76
2023/10/25 08:16:09;;;;;;;;;;;11.60;99.90;;;;;;7369512;19;110163;-77
2023/10/25 08:18:36;;;;;;;;;;;11.60;99.90;;;;;;7369045;19;109063;-76
2023/10/25 08:21:03;;;;;;;;;;;11.70;99.90;;;;;;7369425;19;108294;-75
2023/10/25 08:23:30;;;;;;;;;;;11.60;99.90;;;;;;7371530;19;109847;-86
2023/10/25 08:26:01;;;;;;;;;;;11.70;99.90;;;;;;7395552;19;108409;-85
2023/10/25 08:28:28;;;;;;;;;;;11.70;99.90;;;;;;7397589;19;108999;-86
2023/10/25 08:30:55;;;;;;;;;;;11.70;99.90;;;;;;7402071;19;108792;-87
2023/10/25 08:33:22;;;;;;;;;;;11.80;99.90;;;;;;7371765;19;109575;-87
2023/10/25 08:35:59;;;;;;;;;;;11.80;99.90;;;;;;7368747;19;109034;-86
2023/10/25 08:38:27;;;;;;;;;;;11.80;99.90;;;;;;7362142;19;111400;-86
2023/10/25 08:41:04;;;;;;;;;;;11.90;99.90;;;;;;7364851;19;108611;-86
2023/10/25 08:43:32;;;;;;;;;;;11.80;99.90;;;;;;7362393;19;110441;-86
2023/10/25 08:46:05;;;;;;;;;;;11.90;99.90;;;;;;7366560;19;108734;-87
2023/10/25 08:48:40;;;;;;;;;;;11.80;99.90;;;;;;7365872;19;109637;-86
2023/10/25 08:51:08;;;;;;;;;;;11.90;99.90;;;;;;7360868;19;111930;-86
2023/10/25 08:53:36;;;;;;;;;;;11.80;99.90;;;;;;7369354;19;110085;-86
2023/10/25 08:56:03;;;;;;;;;;;11.90;99.90;;;;;;7360160;19;110579;-87
2023/10/25 08:58:31;;;;;;;;;;;11.90;99.90;;;;;;7347865;19;108645;-86
2023/10/25 09:00:58;;;;;;;;;;;11.90;99.90;;;;;;7331422;19;109624;-85
2023/10/25 09:03:31;;;;;;;;;;;11.90;99.90;;;;;;7333806;19;110391;-86
2023/10/25 09:05:59;;;;;;;;;;;11.90;99.90;;;;;;7331722;19;108449;-86
2023/10/25 09:08:26;;;;;;;;;;;12.00;99.90;;;;;;7333672;19;112334;-86
2023/10/25 09:10:57;;;;;;;;;;;12.00;99.90;;;;;;7327952;19;110317;-86
2023/10/25 09:13:26;;;;;;;;;;;11.90;99.90;;;;;;7334547;19;109685;-74
2023/10/25 09:16:10;;;;;;;;;;;11.90;99.90;;;;;;7340776;19;109266;-74
2023/10/25 09:18:38;;;;;;;;;;;11.90;99.90;;;;;;7337989;19;108618;-74
2023/10/25 09:21:06;;;;;;;;;;;11.90;99.90;;;;;;7337706;19;110578;-74
2023/10/25 09:23:39;;;;;;;;;;;11.90;99.90;;;;;;7338302;19;109340;-73
2023/10/25 09:26:15;;;;;;;;;;;11.90;99.90;;;;;;7334673;19;112800;-73
2023/10/25 09:28:47;;;;;;;;;;;11.80;99.90;;;;;;7337941;19;109419;-72
2023/10/25 09:31:28;;;;;;;;;;;11.90;99.90;;;;;;7335458;19;109763;-72
2023/10/25 09:33:58;;;;;;;;;;;12.00;99.90;;;;;;7335011;19;109059;-74
2023/10/25 09:36:26;;;;;;;;;;;11.90;99.90;;;;;;7336609;19;110315;-72
2023/10/25 09:38:54;;;;;;;;;;;11.90;99.90;;;;;;7339743;19;110867;-72
2023/10/25 09:41:22;;;;;;;;;;;11.80;99.90;;;;;;7333895;19;108873;-72
2023/10/25 09:43:50;;;;;;;;;;;11.80;99.90;;;;;;7332772;19;110218;-72
2023/10/25 09:46:18;;;;;;;;;;;11.80;99.90;;;;;;7334770;19;109133;-72
2023/10/25 09:48:49;;;;;;;;;;;11.90;99.90;;;;;;7334019;19;111195;-71
2023/10/25 09:51:19;;;;;;;;;;;12.00;99.90;;;;;;7333535;19;110499;-71
2023/10/25 09:54:05;;;;;;;;;;;12.00;99.90;;;;;;7336856;19;109115;-73
2023/10/25 09:56:33;;;;;;;;;;;12.00;99.90;;;;;;7336542;19;109307;-73
2023/10/25 09:59:00;;;;;;;;;;;12.00;99.90;;;;;;7334560;19;109647;-73
2023/10/25 10:01:28;;;;;;;;;;;12.00;99.90;;;;;;7340218;19;109042;-72
2023/10/25 10:03:59;;;;;;;;;;;12.00;99.90;;;;;;7332511;19;109724;-72
2023/10/25 10:06:33;;;;;;;;;;;12.00;99.90;;;;;;7341074;19;108748;-72
2023/10/25 10:09:05;;;;;;;;;;;12.10;99.90;;;;;;7335992;19;108890;-72
2023/10/25 10:11:36;;;;;;;;;;;12.10;99.90;;;;;;7336153;19;110262;-73
2023/10/25 10:14:21;;;;;;;;;;;12.10;99.90;;;;;;7333773;19;108814;-74
2023/10/25 10:16:48;;;;;;;;;;;12.10;99.90;;;;;;7334816;19;108649;-72
2023/10/25 10:19:15;;;;;;;;;;;12.10;99.90;;;;;;7337059;19;109256;-73
2023/10/25 10:22:06;;;;;;;;;;;12.10;99.90;;;;;;7339812;19;108965;-79
2023/10/25 10:24:37;;;;;;;;;;;12.20;99.90;;;;;;7336615;19;109153;-75
2023/10/25 10:27:04;;;;;;;;;;;12.10;99.90;;;;;;7333703;19;111029;-77
2023/10/25 10:29:31;;;;;;;;;;;12.10;99.90;;;;;;7337503;19;109861;-77
2023/10/25 10:31:59;;;;;;;;;;;12.10;99.90;;;;;;7336456;19;109671;-75
2023/10/25 10:34:44;;;;;;;;;;;12.10;99.90;;;;;;7338745;19;108972;-73
2023/10/25 10:37:13;;;;;;;;;;;12.10;99.90;;;;;;7334736;19;108902;-74
2023/10/25 10:39:58;;;;;;;;;;;12.10;99.90;;;;;;7336055;19;109903;-72
2023/10/25 10:42:32;;;;;;;;;;;12.20;99.90;;;;;;7336880;19;109553;-72
2023/10/25 10:45:03;;;;;;;;;;;12.20;99.90;;;;;;7339288;19;109221;-72
2023/10/25 10:47:44;;;;;;;;;;;12.20;99.90;;;;;;7335881;19;108270;-72
2023/10/25 10:50:15;;;;;;;;;;;12.20;99.90;;;;;;7333964;19;110442;-70
2023/10/25 10:52:43;;;;;;;;;;;12.30;99.90;;;;;;7334772;19;111367;-72
2023/10/25 10:55:29;;;;;;;;;;;12.30;99.90;;;;;;7336966;19;108746;-72
2023/10/25 10:57:56;;;;;;;;;;;12.30;99.90;;;;;;7337398;19;110212;-72
2023/10/25 11:00:35;;;;;;;;;;;12.30;99.90;;;;;;7334353;19;109196;-71
2023/10/25 11:03:02;;;;;;;;;;;12.30;99.90;;;;;;7331820;19;108877;-72
2023/10/25 11:05:36;;;;;;;;;;;12.40;99.90;;;;;;7330810;19;108660;-72
2023/10/25 11:08:07;;;;;;;;;;;12.40;99.90;;;;;;7339560;19;109103;-72
2023/10/25 11:10:36;;;;;;;;;;;12.40;99.90;;;;;;7336947;19;108565;-71
2023/10/25 11:13:09;;;;;;;;;;;12.30;99.90;;;;;;7333127;19;110201;-71
2023/10/25 11:15:38;;;;;;;;;;;12.40;99.90;;;;;;7333549;19;108724;-71
2023/10/25 11:18:07;;;;;;;;;;;12.40;99.90;;;;;;7334478;19;109166;-72
2023/10/25 11:20:34;;;;;;;;;;;12.50;99.90;;;;;;7335546;19;109081;-72
2023/10/25 11:23:04;;;;;;;;;;;12.50;99.90;;;;;;7334724;19;109447;-73
2023/10/25 11:25:31;;;;;;;;;;;12.50;99.90;;;;;;7334559;19;109145;-72
2023/10/25 11:27:59;;;;;;;;;;;12.50;99.90;;;;;;7335336;19;110157;-72
2023/10/25 11:30:26;;;;;;;;;;;12.60;99.90;;;;;;7339471;19;110750;-71
2023/10/25 11:32:54;;;;;;;;;;;12.60;99.90;;;;;;7333082;19;110495;-72
2023/10/25 11:35:30;;;;;;;;;;;12.60;99.90;;;;;;7334033;19;113950;-71
2023/10/25 11:38:00;;;;;;;;;;;12.60;99.90;;;;;;7334097;19;108982;-72
2023/10/25 11:40:39;;;;;;;;;;;12.60;99.90;;;;;;7333155;19;109235;-71
2023/10/25 11:43:07;;;;;;;;;;;12.60;99.90;;;;;;7332871;19;110779;-72
2023/10/25 11:45:36;;;;;;;;;;;12.60;99.90;;;;;;7335152;19;110008;-72
2023/10/25 11:48:04;;;;;;;;;;;12.70;99.90;;;;;;7330742;19;109127;-71
2023/10/25 11:50:31;;;;;;;;;;;12.60;99.90;;;;;;7337624;19;110674;-71
2023/10/25 11:52:58;;;;;;;;;;;12.60;99.90;;;;;;7337725;19;108462;-72
2023/10/25 11:55:27;;;;;;;;;;;12.60;99.90;;;;;;7335789;19;108725;-72
2023/10/25 11:57:55;;;;;;;;;;;12.70;99.90;;;;;;7334520;19;108734;-72
2023/10/25 12:00:22;;;;;;;;;;;12.70;99.90;;;;;;7331372;19;111579;-72
2023/10/25 12:02:49;;;;;;;;;;;12.70;99.90;;;;;;7333258;19;108929;-72
2023/10/25 12:05:16;;;;;;;;;;;12.80;99.90;;;;;;7333479;19;109924;-78
2023/10/25 12:07:44;;;;;;;;;;;12.80;99.90;;;;;;7332697;19;109861;-76
2023/10/25 12:10:11;;;;;;;;;;;12.80;99.90;;;;;;7334380;19;109668;-76
2023/10/25 12:12:38;;;;;;;;;;;12.90;99.90;;;;;;7335090;19;108656;-79
2023/10/25 12:17:49;;;;;;;;;;;12.80;99.90;;;;;;7331336;19;108993;-72
2023/10/25 12:20:16;;;;;;;;;;;12.80;99.90;;;;;;7331947;19;109779;-71
2023/10/25 12:22:54;;;;;;;;;;;12.90;99.90;;;;;;7334102;19;109259;-73
2023/10/25 12:25:22;;;;;;;;;;;12.90;99.90;;;;;;7331014;19;108578;-71
2023/10/25 12:27:49;;;;;;;;;;;12.90;99.90;;;;;;7330772;19;112452;-72
2023/10/25 12:30:16;;;;;;;;;;;12.90;99.90;;;;;;7325805;19;109454;-71
2023/10/25 12:32:43;;;;;;;;;;;12.90;99.90;;;;;;7329930;19;108706;-72
2023/10/25 12:35:11;;;;;;;;;;;13.00;99.90;;;;;;7341908;19;110749;-72
2023/10/25 12:37:38;;;;;;;;;;;13.00;99.90;;;;;;7343324;19;108608;-73
2023/10/25 12:40:06;;;;;;;;;;;13.00;99.90;;;;;;7334831;19;109100;-72
2023/10/25 12:42:33;;;;;;;;;;;13.00;99.90;;;;;;7337079;19;109062;-72
2023/10/25 12:45:00;;;;;;;;;;;13.00;99.90;;;;;;7337000;19;109139;-73
2023/10/25 12:47:27;;;;;;;;;;;13.10;99.90;;;;;;7340067;19;109137;-72
2023/10/25 12:49:55;;;;;;;;;;;13.10;99.90;;;;;;7336184;19;110754;-72
2023/10/25 12:52:22;;;;;;;;;;;13.20;99.90;;;;;;7342013;19;108370;-71
2023/10/25 12:54:49;;;;;;;;;;;13.20;99.90;;;;;;7337642;19;109155;-72
2023/10/25 12:57:16;;;;;;;;;;;13.20;99.90;;;;;;7343348;19;114639;-70
2023/10/25 12:59:43;;;;;;;;;;;13.20;99.90;;;;;;7339752;19;109755;-72
2023/10/25 13:02:10;;;;;;;;;;;13.30;99.90;;;;;;7339931;19;109981;-71
2023/10/25 13:04:38;;;;;;;;;;;13.30;99.90;;;;;;7336290;19;108364;-72
2023/10/25 13:07:05;;;;;;;;;;;13.40;99.90;;;;;;7336206;19;109475;-72
2023/10/25 13:09:33;;;;;;;;;;;13.50;99.90;;;;;;7336195;19;109558;-71
2023/10/25 13:12:01;;;;;;;;;;;13.50;99.90;;;;;;7336842;19;109445;-71
2023/10/25 13:14:28;;;;;;;;;;;13.50;99.90;;;;;;7337390;19;109319;-70
2023/10/25 13:16:56;;;;;;;;;;;13.50;99.90;;;;;;7332559;19;110376;-72
2023/10/25 13:19:42;;;;;;;;;;;13.60;99.90;;;;;;7343053;19;109113;-71
2023/10/25 13:22:09;;;;;;;;;;;13.60;99.90;;;;;;7337914;19;109072;-71
2023/10/25 13:24:37;;;;;;;;;;;13.60;99.90;;;;;;7338183;19;108522;-71
2023/10/25 13:27:04;;;;;;;;;;;13.60;99.90;;;;;;7338000;19;109722;-71
2023/10/25 13:29:31;;;;;;;;;;;13.60;99.90;;;;;;7338114;19;113872;-72
2023/10/25 13:31:58;;;;;;;;;;;13.60;99.90;;;;;;7333492;19;108793;-71
2023/10/25 13:34:25;;;;;;;;;;;13.60;99.90;;;;;;7336761;19;109376;-73
2023/10/25 13:36:53;;;;;;;;;;;13.70;99.90;;;;;;7335048;19;108695;-73
2023/10/25 13:39:20;;;;;;;;;;;13.70;99.90;;;;;;7335752;19;110031;-70
2023/10/25 13:41:47;;;;;;;;;;;13.70;99.90;;;;;;7339400;19;110723;-72
2023/10/25 13:44:15;;;;;;;;;;;13.70;99.90;;;;;;7333712;19;108739;-71
2023/10/25 13:46:42;;;;;;;;;;;13.70;99.90;;;;;;7334539;19;109142;-71
2023/10/25 13:49:10;;;;;;;;;;;13.80;99.90;;;;;;7330693;19;108728;-71
2023/10/25 13:51:40;;;;;;;;;;;13.80;99.90;;;;;;7333276;19;109232;-72
2023/10/25 13:54:07;;;;;;;;;;;13.70;99.90;;;;;;7337305;19;109707;-71
2023/10/25 13:56:34;;;;;;;;;;;13.70;99.90;;;;;;7335897;19;109783;-71
2023/10/25 13:59:02;;;;;;;;;;;13.70;99.90;;;;;;7332814;19;108759;-72
2023/10/25 14:01:29;;;;;;;;;;;13.70;99.90;;;;;;7334837;19;110222;-70
2023/10/25 14:03:56;;;;;;;;;;;13.70;99.90;;;;;;7340240;19;109181;-72
2023/10/25 14:06:24;;;;;;;;;;;13.70;99.90;;;;;;7334189;19;109174;-71
2023/10/25 14:08:51;;;;;;;;;;;13.70;99.90;;;;;;7333054;19;109232;-71
2023/10/25 14:11:21;;;;;;;;;;;13.70;99.90;;;;;;7337529;19;109037;-70
2023/10/25 14:13:50;;;;;;;;;;;13.70;99.90;;;;;;7335384;19;109713;-71